Slide Mountain Weather observations

Data are for 10 minute period ending at time listed.
 Day   Time   Solar   Ave.   Ave.  Ave.  Vector  Max.    Baro.  
  of    of     Rad.   Air    Rel.  Wind   Wind   Wind   Press.  
Year   Day            Temp.  Hum.  Speed  Dir.   Gust           
2018   (PST)  Kw/m2    F      %     mph   deg.    mph     mb.   
-----------------------------------------------------------------
  22   19:40   0.00   18.7    94    3.0   155      3.7   1102.3 
  22   19:50   0.00   19.5    95    3.9   158      5.5   1102.3 
  22   20:00   0.00   20.3    96    5.6   169      6.9   1102.3 
  22   20:10   0.00   20.7    96    5.0   167      6.4   1102.4 
  22   20:20   0.00   20.9    96    5.9   174      7.3   1102.3 
  22   20:30   0.00   21.0    96    7.0   184      8.6   1102.3 
  22   20:40   0.00   21.0    96    8.2   200      9.3   1102.3 
  22   20:50   0.00   21.0    96    7.5   204      8.3   1102.3 
  22   21:00   0.00   21.1    96    8.1   201      9.4   1102.3 
  22   21:10   0.00   20.8    96    8.4   197      9.3   1102.3 
  22   21:20   0.00   20.9    96    6.3   192      8.4   1102.3 
  22   21:30   0.00   20.8    96    6.3   191      7.6   1102.3 
  22   21:40   0.00   20.7    96    6.5   187      7.6   1102.3 
  22   21:50   0.00   20.4    95    4.8   168      6.8   1102.3 
  22   22:00   0.00   20.0    94    5.0   169      6.4   1102.3 
  22   22:10   0.00   19.6    94    3.9   164      5.1   1102.3 
  22   22:20   0.00   19.5    94    5.5   172      6.9   1102.3 
  22   22:30   0.00   19.8    95    4.7   166      5.5   1102.3 
  22   22:40   0.00   19.9    94    5.6   174      7.6   1102.3 
  22   22:50   0.00   19.5    94    6.5   177      7.9   1102.3 
  22   23:00   0.00   19.4    94    6.1   175      7.2   1102.3 
  22   23:10   0.00   19.4    94    6.5   177      7.6   1102.3 
  22   23:20   0.00   19.4    94    6.5   176      7.7   1102.3 
  22   23:30   0.00   19.6    95    8.2   185     10.0   1102.3 
  22   23:40   0.00   19.7    94    8.6   186     10.1   1102.3 
  22   23:50   0.00   19.7    94    9.1   194     10.5   1102.3 
  23    0:00   0.00   19.6    94    9.7   199     11.3   1102.3 
  23    0:10   0.00   19.7    95   10.1   203     11.9   1102.3 
  23    0:20   0.00   19.6    94   11.0   208     12.6   1102.3 
  23    0:30   0.00   18.9    92   10.2   206     12.2   1102.3 
  23    0:40   0.00   18.2    92    9.8   211     11.2   1102.3 
  23    0:50   0.00   17.9    91   10.4   237     13.4   1102.3 
  23    1:00   0.00   18.3    91   14.2   267     16.9   1102.3 
  23    1:10   0.00   19.0    90   15.7   262     19.2   1102.3 
  23    1:20   0.00   19.0    88   17.5   258     20.3   1102.3 
  23    1:30   0.00   18.5    87   17.6   248     20.6   1102.3 
  23    1:40   0.00   18.3    86   20.5   241     25.2   1102.3 
  23    1:50   0.00   18.2    85   19.6   236     22.8   1102.3 
  23    2:00   0.00   18.3    82   20.2   240     23.0   1102.3 
  23    2:10   0.00   18.4    78   17.7   249     20.6   1102.3 
  23    2:20   0.00   18.5    76   16.5   248     19.2   1102.3 
  23    2:30   0.00   19.0    70   12.0   264     15.8   1102.3 
  23    2:40   0.00   20.9    62    8.7   286     10.5   1102.3 
  23    2:50   0.00   22.3    55    9.2   290     11.6   1102.3 
  23    3:00   0.00   22.7    57   10.8   275     16.6   1102.3 
  23    3:10   0.00   22.5    57   11.5   263     15.9   1102.3 
  23    3:20   0.00   21.0    57   16.5   252     18.8   1102.3 
  23    3:30   0.00   21.1    53   16.8   251     19.4   1102.3 
  23    3:40   0.00   21.4    49   16.7   252     18.5   1102.3 
  23    3:50   0.00   22.0    44   17.0   258     19.8   1102.3 
  23    4:00   0.00   22.6    39   13.3   267     15.9   1102.3 
  23    4:10   0.00   23.9    35   11.2   274     15.9   1102.3 
  23    4:20   0.00   23.7    38   11.5   258     14.2   1102.3 
  23    4:30   0.00   22.6    39   13.6   249     17.8   1102.3 
  23    4:40   0.00   23.0    38   14.7   256     17.4   1102.3 
  23    4:50   0.00   23.8    35   14.2   264     18.1   1102.3 
  23    5:00   0.00   24.9    31   13.4   266     17.8   1102.3 
  23    5:10   0.00   25.0    31   14.2   267     20.9   1102.3 
  23    5:20   0.00   24.4    32   12.9   276     19.0   1102.3 
  23    5:30   0.00   26.4    25   14.4   300     17.0   1102.3 
  23    5:40   0.00   28.8    20   14.7   302     20.3   1102.3 
  23    5:50   0.00   28.3    21   14.2   295     19.8   1102.3 
  23    6:00   0.00   28.3    21   14.8   296     19.5   1102.3 
  23    6:10   0.00   27.2    24   13.3   282     19.4   1102.3 
  23    6:20   0.00   26.8    25   11.4   285     15.2   1102.3 
  23    6:30   0.00   27.7    21    8.3   314     11.2   1102.3 
  23    6:40   0.00   27.4    22    8.6   342     14.5   1102.3 
  23    6:50   0.00   28.3    20   11.5   336     20.0   1102.3 
  23    7:00   0.00   28.6    19   10.0   313     13.1   1102.3 
  23    7:10   0.00   28.9    19    9.7   308     13.1   1102.3 
  23    7:20   0.01   28.9    19   11.6   310     14.5   1102.3 
  23    7:30   0.01   29.4    18   13.1   306     16.0   1102.3 
  23    7:40   0.02   28.9    19   13.1   299     16.0   1102.3 
  23    7:50   0.04   28.1    22   16.1   273     20.2   1102.3 
  23    8:00   0.06   28.2    22   19.4   267     21.9   1102.3 
  23    8:10   0.05   28.3    21   20.2   264     23.5   1102.3 
  23    8:20   0.11   29.3    20   20.0   262     22.3   1102.3 
  23    8:30   0.16   30.2    18   18.7   262     21.0   1102.3 
  23    8:40   0.14   30.0    19   19.6   261     22.3   1102.3 
  23    8:50   0.17   29.8    20   19.7   261     22.7   1102.3 
  23    9:00   0.21   30.4    19   18.6   263     21.4   1102.4 
  23    9:10   0.16   30.3    20   15.8   265     19.8   1102.4 
  23    9:20   0.25   31.1    18   13.1   264     18.4   1102.3 
  23    9:30   0.13   31.0    18   10.0   269     15.6   1102.3 
  23    9:40   0.20   31.0    19    8.7   271     14.9   1102.3 
  23    9:50   0.32   32.8    17    4.4   264     11.8   1102.4 
  23   10:00   0.36   33.3    17    8.3   264     12.2   1102.4 
  23   10:10   0.32   32.6    21    9.1   265     13.4   1102.4 
  23   10:20   0.37   32.3    23    7.9   262     12.3   1102.4 
  23   10:30   0.37   32.8    24    8.0   254     13.0   1102.4 
  23   10:40   0.42   32.6    26   10.2   263     14.8   1102.4 
  23   10:50   0.41   33.4    32    8.1   256     11.3   1102.3 
  23   11:00   0.43   33.3    34    8.8   253     12.7   1102.3 
  23   11:10   0.44   33.4    35    9.8   249     13.9   1102.4 
  23   11:20   0.45   33.3    42   10.3   246     13.5   1102.4 
  23   11:30   0.51   33.0    40   11.7   245     16.9   1102.4 
  23   11:40   0.47   32.9    37   12.6   248     16.6   1102.4 
  23   11:50   0.41   32.7    37   12.0   249     18.2   1102.4 
  23   12:00   0.41   32.0    39   13.0   252     17.8   1102.4 
  23   12:10   0.40   32.2    41   12.1   251     17.0   1102.4 
  23   12:20   0.41   31.6    43   14.8   248     19.3   1102.4 
  23   12:30   0.43   31.4    40   15.6   247     20.4   1102.4 
  23   12:40   0.41   31.1    36   17.2   245     23.6   1102.4 
  23   12:50   0.38   31.2    34   18.3   245     23.1   1102.4 
  23   13:00   0.33   30.7    36   18.2   246     23.6   1102.4 
  23   13:10   0.27   30.1    40   20.5   248     24.6   1102.4 
  23   13:20   0.33   30.3    40   20.2   246     27.6   1102.4 
  23   13:30   0.39   31.1    36   21.0   249     26.0   1102.3 
  23   13:40   0.37   31.4    32   20.3   243     29.8   1102.3 
  23   13:50   0.40   31.0    30   21.4   241     29.0   1102.3 
  23   14:00   0.36   31.1    30   22.6   240     29.0   1102.3 
  23   14:10   0.28   30.2    33   26.2   239     34.1   1102.4 
  23   14:20   0.30   29.9    32   29.6   237     39.2   1102.4 
  23   14:30   0.21   29.7    33   26.8   237     38.1   1102.4 
  23   14:40   0.17   29.0    36   26.2   232     36.2   1102.4 
  23   14:50   0.23   29.4    38   24.4   233     33.6   1102.4 
  23   15:00   0.29   30.3    37   23.0   230     34.4   1102.4 
  23   15:10   0.30   30.8    38   23.6   232     35.5   1102.3 
  23   15:20   0.28   30.5    40   25.4   232     31.2   1102.3 
  23   15:30   0.24   30.3    42   24.1   231     34.3   1102.3 
  23   15:40   0.19   29.9    43   25.0   230     34.5   1102.3 
  23   15:50   0.21   29.9    43   27.2   230     36.0   1102.3 
  23   16:00   0.18   29.8    41   28.5   229     36.8   1102.3 
  23   16:10   0.13   29.2    41   31.2   230     39.7   1102.3 
  23   16:20   0.12   28.8    42   30.9   233     41.0   1102.3 
  23   16:30   0.07   28.3    43   34.2   239     45.3   1102.3 
  23   16:40   0.04   27.7    43   36.8   234     46.8   1102.4 
  23   16:50   0.03   27.4    44   36.1   232     45.9   1102.4 
  23   17:00   0.01   27.2    44   36.2   232     48.4   1102.4 
  23   17:10   0.00   26.9    42   37.0   234     49.1   1102.3 
  23   17:20   0.00   26.8    42   38.0   232     49.8   1102.3 
  23   17:30   0.00   26.7    42   37.5   228     51.5   1102.4 
  23   17:40   0.00   26.5    43   38.9   233     53.5   1102.4 
  23   17:50   0.00   26.4    44   40.6   232     56.7   1102.3 
  23   18:00   0.00   26.3    44   42.0   233     56.5   1102.3 
  23   18:10   0.00   26.4    41   44.5   232     55.2   1102.3 
  23   18:20   0.00   26.5    38   48.8   236     63.9   1102.3 
  23   18:30   0.00   26.5    37   51.3   237     67.6   1102.3 
  23   18:40   0.00   26.6    34   51.2   236     63.3   1102.3 
  23   18:50   0.00   26.6    34   49.7   238     58.6   1102.3 
  23   19:00   0.00   26.6    31   51.3   236     61.9   1102.3 
  23   19:10   0.00   26.3    33   46.1   237     56.5   1102.3 
  23   19:20   0.00   26.4    31   47.8   234     57.1   1102.3 
  23   19:30   0.00   26.2    32   48.4   235     59.7   1102.3 

Return to Slide Mountain graphs page.


Western Regional Climate Center,wrcc@dri.edu